Time;durP1;ratioP1;P1;durP2;ratioP2;P2;SDS_P1;SDS_P2;PMS_P1;PMS_P2;Temp;Humidity;BMP_temperature;BMP_pressure;BME280_temperature;BME280_humidity;BME280_pressure;Samples;Min_cycle;Max_cycle;Signal;HPM_P1;HPM_P2
2023/07/14 00:01:29;;;;;;;6.35;2.35;;;;;;;;;;4957266;29;20487;-77
2023/07/14 00:03:54;;;;;;;5.57;2.30;;;;;;;;;;4957408;28;20038;-76
2023/07/14 00:06:20;;;;;;;6.60;2.80;;;;;;;;;;4957275;29;20035;-76
2023/07/14 00:08:46;;;;;;;4.25;1.98;;;;;;;;;;4956392;29;20050;-76
2023/07/14 00:11:13;;;;;;;9.63;2.05;;;;;;;;;;4940096;29;20123;-77
2023/07/14 00:13:38;;;;;;;7.25;2.35;;;;;;;;;;4939895;29;20035;-76
2023/07/14 00:16:10;;;;;;;8.60;2.55;;;;;;;;;;4939655;29;20035;-78
2023/07/14 00:18:36;;;;;;;7.40;2.55;;;;;;;;;;4972267;28;20036;-77
2023/07/14 00:21:01;;;;;;;9.00;2.53;;;;;;;;;;4942545;28;20042;-78
2023/07/14 00:23:27;;;;;;;7.75;2.13;;;;;;;;;;4975970;28;20109;-78
2023/07/14 00:25:53;;;;;;;6.95;3.47;;;;;;;;;;4976429;28;20029;-78
2023/07/14 00:28:19;;;;;;;6.93;2.60;;;;;;;;;;4957785;28;20407;-76
2023/07/14 00:30:46;;;;;;;9.05;2.25;;;;;;;;;;4940106;28;20038;-77
2023/07/14 00:33:14;;;;;;;6.32;2.33;;;;;;;;;;4956578;28;20522;-76
2023/07/14 00:35:40;;;;;;;6.68;2.17;;;;;;;;;;4923722;29;20090;-78
2023/07/14 00:38:05;;;;;;;5.80;2.08;;;;;;;;;;4956456;29;20039;-77
2023/07/14 00:40:36;;;;;;;5.30;2.38;;;;;;;;;;4938900;29;20039;-76
2023/07/14 00:43:03;;;;;;;5.47;2.17;;;;;;;;;;4923657;29;20031;-76
2023/07/14 00:45:29;;;;;;;4.53;2.00;;;;;;;;;;4923675;29;20074;-76
2023/07/14 00:48:03;;;;;;;3.50;1.92;;;;;;;;;;4923442;29;20034;-77
2023/07/14 00:50:34;;;;;;;5.55;2.05;;;;;;;;;;4939270;29;20086;-77
2023/07/14 00:53:02;;;;;;;5.72;1.90;;;;;;;;;;4939060;29;20070;-78
2023/07/14 00:55:51;;;;;;;5.28;2.25;;;;;;;;;;4923565;29;20090;-77
2023/07/14 00:58:16;;;;;;;4.25;2.08;;;;;;;;;;4920709;29;20321;-76
2023/07/14 01:00:58;;;;;;;5.90;2.13;;;;;;;;;;4923198;29;20434;-77
2023/07/14 01:03:24;;;;;;;3.58;1.90;;;;;;;;;;4923131;29;20039;-77
2023/07/14 01:05:49;;;;;;;4.72;1.98;;;;;;;;;;4939406;29;20527;-77
2023/07/14 01:08:15;;;;;;;4.90;2.03;;;;;;;;;;4939631;29;20376;-77
2023/07/14 01:10:41;;;;;;;22.65;5.15;;;;;;;;;;4923529;29;20588;-76
2023/07/14 01:13:08;;;;;;;6.65;3.30;;;;;;;;;;4955269;28;20039;-76
2023/07/14 01:15:35;;;;;;;5.68;2.33;;;;;;;;;;4958130;28;20035;-77
2023/07/14 01:18:00;;;;;;;5.40;2.70;;;;;;;;;;4975408;28;20474;-77
2023/07/14 01:20:26;;;;;;;5.10;2.05;;;;;;;;;;4957043;28;20045;-77
2023/07/14 01:22:59;;;;;;;6.57;2.15;;;;;;;;;;4925391;28;20087;-77
2023/07/14 01:25:43;;;;;;;4.95;2.10;;;;;;;;;;4917317;28;20027;-76
2023/07/14 01:28:11;;;;;;;6.05;2.45;;;;;;;;;;4974687;28;20035;-76
2023/07/14 01:30:36;;;;;;;4.25;2.40;;;;;;;;;;4961376;28;20039;-75
2023/07/14 01:33:04;;;;;;;4.78;2.00;;;;;;;;;;4938285;29;20411;-76
2023/07/14 01:35:32;;;;;;;6.90;2.00;;;;;;;;;;4955502;29;20110;-78
2023/07/14 01:37:58;;;;;;;6.47;2.40;;;;;;;;;;4938475;29;20490;-76
2023/07/14 01:40:23;;;;;;;3.90;1.60;;;;;;;;;;4938317;29;20046;-77
2023/07/14 01:42:52;;;;;;;5.45;2.13;;;;;;;;;;4922003;29;20031;-78
2023/07/14 01:45:19;;;;;;;5.53;2.03;;;;;;;;;;4954038;28;20602;-76
2023/07/14 01:47:47;;;;;;;5.10;1.80;;;;;;;;;;4938246;29;20089;-76
2023/07/14 01:50:36;;;;;;;7.35;1.80;;;;;;;;;;4906395;29;20510;-76
2023/07/14 01:53:04;;;;;;;4.07;2.10;;;;;;;;;;4932668;29;20101;-77
2023/07/14 01:55:34;;;;;;;3.53;1.88;;;;;;;;;;4953888;29;20031;-77
2023/07/14 01:58:05;;;;;;;5.03;2.10;;;;;;;;;;4954952;29;20492;-76
2023/07/14 02:00:32;;;;;;;6.45;2.00;;;;;;;;;;4938428;29;20384;-76
2023/07/14 02:02:59;;;;;;;4.25;2.08;;;;;;;;;;4958260;28;20035;-78
2023/07/14 02:05:33;;;;;;;8.35;2.47;;;;;;;;;;4925261;29;20035;-77
2023/07/14 02:08:01;;;;;;;5.40;2.25;;;;;;;;;;4942026;29;20027;-76
2023/07/14 02:10:26;;;;;;;5.97;2.00;;;;;;;;;;4930104;29;20027;-77
2023/07/14 02:12:53;;;;;;;6.03;2.30;;;;;;;;;;4954832;29;20047;-77
2023/07/14 02:15:21;;;;;;;6.80;2.33;;;;;;;;;;4972661;29;20091;-77
2023/07/14 02:17:47;;;;;;;4.82;2.25;;;;;;;;;;4961534;28;20027;-75
2023/07/14 02:20:33;;;;;;;6.78;2.90;;;;;;;;;;4975767;28;20069;-76
2023/07/14 02:23:01;;;;;;;7.40;2.50;;;;;;;;;;4959434;28;20069;-77
2023/07/14 02:25:28;;;;;;;4.47;2.20;;;;;;;;;;4982652;28;20038;-76
2023/07/14 02:27:53;;;;;;;6.90;2.40;;;;;;;;;;4925767;28;20030;-77
2023/07/14 02:30:21;;;;;;;5.72;2.20;;;;;;;;;;4973342;28;20509;-77
2023/07/14 02:32:58;;;;;;;7.20;2.40;;;;;;;;;;4924234;28;20114;-76
2023/07/14 02:35:36;;;;;;;5.03;2.10;;;;;;;;;;4940514;28;20050;-75
2023/07/14 02:38:05;;;;;;;6.35;2.05;;;;;;;;;;4940906;28;20486;-78
2023/07/14 02:40:50;;;;;;;6.63;2.15;;;;;;;;;;4973442;28;20031;-77
2023/07/14 02:43:16;;;;;;;7.30;2.30;;;;;;;;;;4973369;28;20517;-76
2023/07/14 02:45:46;;;;;;;5.53;2.65;;;;;;;;;;4956191;28;20023;-76
2023/07/14 02:48:14;;;;;;;8.90;3.63;;;;;;;;;;4956310;28;20382;-76
2023/07/14 02:50:40;;;;;;;5.85;2.75;;;;;;;;;;4955720;28;20470;-76
2023/07/14 02:53:05;;;;;;;7.50;2.80;;;;;;;;;;4940201;28;20038;-76
2023/07/14 02:55:31;;;;;;;8.98;2.55;;;;;;;;;;4956279;28;20031;-76
2023/07/14 02:57:56;;;;;;;7.43;2.50;;;;;;;;;;4973319;28;20045;-76
2023/07/14 03:00:22;;;;;;;8.32;3.13;;;;;;;;;;4973050;28;20125;-76
2023/07/14 03:02:48;;;;;;;7.63;2.83;;;;;;;;;;4962248;23;20075;-84
2023/07/14 03:05:13;;;;;;;4.80;2.60;;;;;;;;;;4954087;29;20035;-83
2023/07/14 03:07:39;;;;;;;6.53;2.75;;;;;;;;;;4937126;29;20517;-84
2023/07/14 03:10:06;;;;;;;5.53;3.58;;;;;;;;;;4936887;29;20042;-84
2023/07/14 03:12:32;;;;;;;6.85;2.63;;;;;;;;;;4936856;28;20046;-84
2023/07/14 03:14:58;;;;;;;8.90;3.15;;;;;;;;;;4936912;29;20037;-83
2023/07/14 03:17:23;;;;;;;9.02;2.90;;;;;;;;;;4950737;29;20027;-83
2023/07/14 03:19:49;;;;;;;11.32;2.60;;;;;;;;;;4934539;29;20039;-83
2023/07/14 03:22:14;;;;;;;8.85;2.90;;;;;;;;;;4917288;29;20027;-82
2023/07/14 03:24:40;;;;;;;5.10;2.65;;;;;;;;;;4917746;29;20227;-83
2023/07/14 03:27:05;;;;;;;7.57;2.78;;;;;;;;;;4952527;29;20031;-83
2023/07/14 03:29:31;;;;;;;5.10;2.85;;;;;;;;;;4937104;29;20503;-81
2023/07/14 03:31:56;;;;;;;5.95;2.58;;;;;;;;;;4921397;29;20034;-81
2023/07/14 03:34:22;;;;;;;6.22;2.80;;;;;;;;;;4954629;28;20174;-81
2023/07/14 03:36:48;;;;;;;11.48;3.80;;;;;;;;;;4954119;29;20514;-82
2023/07/14 03:39:19;;;;;;;5.18;2.50;;;;;;;;;;4954151;29;20038;-84
2023/07/14 03:41:44;;;;;;;6.95;2.65;;;;;;;;;;4953612;29;20031;-83
2023/07/14 03:44:10;;;;;;;6.40;2.50;;;;;;;;;;4936630;29;20038;-83
2023/07/14 03:46:36;;;;;;;6.57;2.67;;;;;;;;;;4953966;29;20031;-84
2023/07/14 03:49:01;;;;;;;7.60;2.72;;;;;;;;;;4936694;29;20123;-83
2023/07/14 03:51:30;;;;;;;10.45;2.53;;;;;;;;;;4936285;29;20470;-83
2023/07/14 03:53:55;;;;;;;4.25;2.38;;;;;;;;;;4921076;29;20130;-82
2023/07/14 03:56:21;;;;;;;6.22;3.22;;;;;;;;;;4921271;29;20114;-82
2023/07/14 03:58:46;;;;;;;6.72;2.65;;;;;;;;;;4953827;29;20035;-83
2023/07/14 04:01:14;;;;;;;8.45;2.25;;;;;;;;;;4936652;29;20473;-83
2023/07/14 04:03:40;;;;;;;9.00;2.78;;;;;;;;;;4955881;28;20039;-83
2023/07/14 04:06:06;;;;;;;7.60;2.70;;;;;;;;;;4940591;29;20082;-83
2023/07/14 04:08:35;;;;;;;6.82;2.67;;;;;;;;;;4940384;29;20487;-83
2023/07/14 04:11:00;;;;;;;9.25;2.35;;;;;;;;;;4924458;29;20040;-83
2023/07/14 04:13:26;;;;;;;7.82;3.30;;;;;;;;;;4940212;29;20038;-82
2023/07/14 04:15:51;;;;;;;7.53;2.75;;;;;;;;;;4958280;29;20526;-84
2023/07/14 04:18:17;;;;;;;6.30;2.83;;;;;;;;;;4947951;29;20028;-84
2023/07/14 04:20:43;;;;;;;5.28;2.33;;;;;;;;;;4921564;29;20491;-83
2023/07/14 04:23:08;;;;;;;5.70;2.38;;;;;;;;;;4905945;29;20035;-82
2023/07/14 04:25:35;;;;;;;7.75;2.10;;;;;;;;;;4920981;29;20403;-83
2023/07/14 04:28:01;;;;;;;4.25;2.20;;;;;;;;;;4906415;29;20063;-84
2023/07/14 04:30:26;;;;;;;7.95;3.60;;;;;;;;;;4921601;29;20079;-82
2023/07/14 04:32:54;;;;;;;4.68;2.45;;;;;;;;;;4921693;29;20103;-84
2023/07/14 04:35:20;;;;;;;7.18;2.53;;;;;;;;;;4922171;29;20031;-82
2023/07/14 04:37:45;;;;;;;6.53;2.55;;;;;;;;;;4923798;29;20099;-82
2023/07/14 04:40:11;;;;;;;11.70;4.18;;;;;;;;;;4910954;29;20036;-82
2023/07/14 04:42:36;;;;;;;6.47;2.67;;;;;;;;;;4948493;29;20043;-83
2023/07/14 04:45:02;;;;;;;8.00;2.75;;;;;;;;;;4940104;29;20098;-83
2023/07/14 04:47:27;;;;;;;9.80;4.03;;;;;;;;;;4939997;29;20034;-83
2023/07/14 04:49:53;;;;;;;8.98;2.90;;;;;;;;;;4959768;29;20495;-82
2023/07/14 04:52:19;;;;;;;10.70;2.67;;;;;;;;;;4942004;29;20051;-81
2023/07/14 04:54:44;;;;;;;10.30;2.83;;;;;;;;;;4959422;29;20032;-80
2023/07/14 04:57:10;;;;;;;7.45;2.80;;;;;;;;;;4952865;29;20047;-80
2023/07/14 04:59:36;;;;;;;9.27;2.90;;;;;;;;;;4917745;29;20412;-84
2023/07/14 05:02:04;;;;;;;11.65;3.00;;;;;;;;;;4922754;29;20035;-82
2023/07/14 05:04:38;;;;;;;9.38;2.70;;;;;;;;;;4940321;29;20127;-83
2023/07/14 05:07:04;;;;;;;5.15;2.58;;;;;;;;;;4922908;29;20035;-87
2023/07/14 05:09:29;;;;;;;10.88;2.42;;;;;;;;;;4906816;29;20032;-85
2023/07/14 05:11:55;;;;;;;8.15;2.80;;;;;;;;;;4923300;29;20087;-85
2023/07/14 05:14:20;;;;;;;9.20;2.47;;;;;;;;;;4920794;29;20415;-84
2023/07/14 05:16:46;;;;;;;9.82;3.30;;;;;;;;;;4938049;29;20111;-85
2023/07/14 05:19:11;;;;;;;14.52;3.40;;;;;;;;;;4938212;29;20045;-84
2023/07/14 05:21:37;;;;;;;11.23;2.92;;;;;;;;;;4938897;29;20032;-84
2023/07/14 05:24:02;;;;;;;9.23;2.83;;;;;;;;;;4922338;29;20039;-85
2023/07/14 05:26:28;;;;;;;10.10;2.50;;;;;;;;;;4905656;29;20027;-85
2023/07/14 05:28:54;;;;;;;9.20;3.67;;;;;;;;;;4921470;29;20027;-85
2023/07/14 05:31:20;;;;;;;8.07;2.80;;;;;;;;;;4905816;29;20043;-85
2023/07/14 05:33:45;;;;;;;9.43;3.05;;;;;;;;;;4920415;29;20040;-81
2023/07/14 05:36:11;;;;;;;7.30;2.58;;;;;;;;;;4919813;29;20095;-83
2023/07/14 05:38:36;;;;;;;7.28;2.72;;;;;;;;;;4926511;29;20029;-81
2023/07/14 05:41:04;;;;;;;8.30;2.70;;;;;;;;;;4926421;29;20040;-80
2023/07/14 05:43:30;;;;;;;8.02;3.00;;;;;;;;;;4922175;29;20035;-85
2023/07/14 05:45:58;;;;;;;9.15;2.80;;;;;;;;;;4922456;29;20042;-90
2023/07/14 05:48:24;;;;;;;5.63;2.65;;;;;;;;;;4926401;28;20027;-90
2023/07/14 05:50:50;;;;;;;4.32;2.40;;;;;;;;;;4913060;29;20083;-90
2023/07/14 05:53:16;;;;;;;6.93;2.25;;;;;;;;;;4944726;29;20027;-89
2023/07/14 05:55:42;;;;;;;6.85;2.15;;;;;;;;;;4912411;29;20020;-85
2023/07/14 05:58:07;;;;;;;4.35;2.03;;;;;;;;;;4948681;29;20039;-86
2023/07/14 06:00:38;;;;;;;7.97;2.10;;;;;;;;;;4943750;29;20035;-91
2023/07/14 06:03:05;;;;;;;9.52;2.75;;;;;;;;;;4942513;29;20027;-87
2023/07/14 06:05:31;;;;;;;5.18;2.05;;;;;;;;;;4939214;29;20506;-88
2023/07/14 06:07:57;;;;;;;5.45;2.03;;;;;;;;;;4907785;29;20066;-90
2023/07/14 06:10:22;;;;;;;6.03;1.80;;;;;;;;;;4914714;29;20039;-87
2023/07/14 06:12:48;;;;;;;7.95;2.17;;;;;;;;;;4938721;29;20032;-88
2023/07/14 06:15:15;;;;;;;6.28;2.10;;;;;;;;;;4918228;29;20034;-89
2023/07/14 06:17:40;;;;;;;7.80;2.28;;;;;;;;;;4902913;29;20028;-89
2023/07/14 06:20:06;;;;;;;9.07;2.42;;;;;;;;;;4916482;29;20031;-84
2023/07/14 06:22:32;;;;;;;5.55;2.22;;;;;;;;;;4938777;29;20372;-82
2023/07/14 06:24:58;;;;;;;7.63;2.15;;;;;;;;;;4890651;29;20063;-80
2023/07/14 06:27:24;;;;;;;4.45;1.90;;;;;;;;;;4920758;29;20055;-81
2023/07/14 06:29:49;;;;;;;6.13;2.00;;;;;;;;;;4939398;29;20038;-82
2023/07/14 06:32:15;;;;;;;5.60;1.90;;;;;;;;;;4922973;29;20115;-82
2023/07/14 06:34:42;;;;;;;4.20;1.73;;;;;;;;;;4946501;29;20035;-82
2023/07/14 06:37:09;;;;;;;7.10;2.08;;;;;;;;;;4943059;29;20047;-82
2023/07/14 06:39:35;;;;;;;4.95;1.63;;;;;;;;;;4916523;29;20103;-81
2023/07/14 06:42:00;;;;;;;6.13;2.28;;;;;;;;;;4921024;29;20526;-80
2023/07/14 06:44:26;;;;;;;4.20;1.90;;;;;;;;;;4938551;29;20027;-82
2023/07/14 06:46:51;;;;;;;5.05;1.90;;;;;;;;;;4931961;29;20043;-81
2023/07/14 06:49:17;;;;;;;6.03;2.50;;;;;;;;;;4921454;29;20068;-85
2023/07/14 06:51:42;;;;;;;6.80;1.73;;;;;;;;;;4921439;29;20046;-85
2023/07/14 06:54:08;;;;;;;5.25;1.52;;;;;;;;;;4920861;29;20131;-85
2023/07/14 06:56:34;;;;;;;4.70;1.85;;;;;;;;;;4923791;29;20035;-83
2023/07/14 06:59:00;;;;;;;10.00;2.30;;;;;;;;;;4907239;29;20050;-90
2023/07/14 07:01:26;;;;;;;5.63;2.22;;;;;;;;;;4905337;29;20436;-89
2023/07/14 07:03:51;;;;;;;3.83;1.63;;;;;;;;;;4922517;29;20067;-87
2023/07/14 07:06:17;;;;;;;4.45;1.80;;;;;;;;;;4921327;29;20508;-90
2023/07/14 07:08:43;;;;;;;5.00;1.85;;;;;;;;;;4905848;29;20060;-84
2023/07/14 07:11:12;;;;;;;6.38;2.25;;;;;;;;;;4920663;29;20500;-87
2023/07/14 07:13:38;;;;;;;7.35;2.08;;;;;;;;;;4907325;29;20046;-86
2023/07/14 07:16:03;;;;;;;4.38;1.60;;;;;;;;;;4945011;29;20027;-79
2023/07/14 07:18:29;;;;;;;6.88;1.90;;;;;;;;;;4971816;29;20058;-79
2023/07/14 07:20:55;;;;;;;4.80;1.52;;;;;;;;;;4942112;29;20099;-84
2023/07/14 07:23:21;;;;;;;3.25;1.63;;;;;;;;;;4953737;29;20034;-84
2023/07/14 07:25:50;;;;;;;4.07;1.40;;;;;;;;;;4943470;28;20159;-84
2023/07/14 07:28:18;;;;;;;3.22;1.50;;;;;;;;;;4974689;28;20023;-83
2023/07/14 07:30:44;;;;;;;5.57;2.15;;;;;;;;;;4975877;28;20047;-83
2023/07/14 07:33:09;;;;;;;3.03;1.73;;;;;;;;;;4976654;28;20031;-82
2023/07/14 07:35:38;;;;;;;6.78;1.90;;;;;;;;;;4954433;29;20034;-83
2023/07/14 07:38:04;;;;;;;6.90;2.03;;;;;;;;;;4931466;29;20491;-83
2023/07/14 07:40:30;;;;;;;4.32;1.90;;;;;;;;;;4941292;29;20041;-80
2023/07/14 07:42:56;;;;;;;8.05;1.90;;;;;;;;;;4941007;29;20038;-81
2023/07/14 07:45:21;;;;;;;3.45;1.50;;;;;;;;;;4958223;29;20035;-81
2023/07/14 07:48:05;;;;;;;6.32;1.50;;;;;;;;;;4958309;29;20023;-81
2023/07/14 07:50:31;;;;;;;4.50;1.63;;;;;;;;;;4942147;29;20122;-81
2023/07/14 07:52:56;;;;;;;4.63;1.63;;;;;;;;;;4958775;29;20103;-80
2023/07/14 07:55:22;;;;;;;27.77;3.63;;;;;;;;;;4925796;29;20514;-81
2023/07/14 07:57:48;;;;;;;5.50;1.80;;;;;;;;;;4940975;29;20024;-81
2023/07/14 08:00:15;;;;;;;4.47;1.75;;;;;;;;;;4928749;29;20039;-82
2023/07/14 08:02:41;;;;;;;5.72;1.40;;;;;;;;;;4914356;29;20031;-81
2023/07/14 08:05:07;;;;;;;6.07;1.60;;;;;;;;;;4959738;29;20130;-80
2023/07/14 08:07:33;;;;;;;4.18;1.60;;;;;;;;;;4940127;29;20507;-82
2023/07/14 08:09:59;;;;;;;7.25;1.90;;;;;;;;;;4925105;29;20074;-81
2023/07/14 08:12:25;;;;;;;3.55;1.50;;;;;;;;;;4957663;29;20355;-81
2023/07/14 08:14:54;;;;;;;5.40;1.80;;;;;;;;;;4940482;29;20027;-81
2023/07/14 08:17:24;;;;;;;5.55;1.30;;;;;;;;;;4939957;29;20390;-81
2023/07/14 08:19:50;;;;;;;4.85;1.33;;;;;;;;;;4957627;29;20035;-82
2023/07/14 08:22:16;;;;;;;4.05;1.48;;;;;;;;;;4924227;29;20419;-81
2023/07/14 08:24:41;;;;;;;4.28;1.65;;;;;;;;;;4940090;29;20117;-80
2023/07/14 08:27:07;;;;;;;4.35;1.20;;;;;;;;;;4939823;29;20394;-82
2023/07/14 08:29:33;;;;;;;4.40;1.50;;;;;;;;;;4956895;29;20035;-81
2023/07/14 08:31:59;;;;;;;7.60;1.40;;;;;;;;;;4939986;29;20581;-82
2023/07/14 08:34:29;;;;;;;5.82;1.40;;;;;;;;;;4956904;29;20122;-81
2023/07/14 08:36:55;;;;;;;7.60;2.38;;;;;;;;;;4956960;29;20035;-81
2023/07/14 08:39:20;;;;;;;5.43;1.48;;;;;;;;;;4939939;29;20042;-81
2023/07/14 08:41:50;;;;;;;3.72;1.55;;;;;;;;;;4907919;29;20038;-80
2023/07/14 08:44:25;;;;;;;3.63;1.30;;;;;;;;;;4939887;29;20038;-80
2023/07/14 08:47:09;;;;;;;5.03;1.73;;;;;;;;;;4957240;29;20023;-81
2023/07/14 08:49:56;;;;;;;12.20;1.38;;;;;;;;;;4939377;29;20027;-80
2023/07/14 08:52:27;;;;;;;5.22;1.40;;;;;;;;;;4956193;29;20034;-80
2023/07/14 08:54:55;;;;;;;9.00;1.85;;;;;;;;;;4923622;29;20032;-80
2023/07/14 08:57:23;;;;;;;7.75;1.75;;;;;;;;;;4939164;29;20497;-80
2023/07/14 08:59:53;;;;;;;5.53;1.60;;;;;;;;;;4956708;29;20058;-80
2023/07/14 09:02:21;;;;;;;6.40;1.60;;;;;;;;;;4955871;29;20510;-80
2023/07/14 09:04:51;;;;;;;4.43;1.40;;;;;;;;;;4956493;29;20035;-81
2023/07/14 09:07:16;;;;;;;6.72;1.95;;;;;;;;;;4956370;29;20077;-81
2023/07/14 09:09:42;;;;;;;4.88;1.45;;;;;;;;;;4977982;23;20077;-76
2023/07/14 09:12:16;;;;;;;5.28;1.60;;;;;;;;;;4977069;28;20097;-76
2023/07/14 09:14:45;;;;;;;7.90;1.80;;;;;;;;;;4995359;28;20050;-74
2023/07/14 09:17:13;;;;;;;5.90;2.20;;;;;;;;;;4977777;28;20074;-76
2023/07/14 09:19:39;;;;;;;;;;;;;;;;;;4962152;28;20129;-76
2023/07/14 09:22:16;;;;;;;4.53;1.63;;;;;;;;;;4975231;28;19914;-75
2023/07/14 09:25:08;;;;;;;3.40;1.60;;;;;;;;;;4975720;28;20031;-75
2023/07/14 09:27:34;;;;;;;4.18;1.80;;;;;;;;;;4971741;28;20035;-77
2023/07/14 09:29:59;;;;;;;4.18;1.40;;;;;;;;;;4974904;28;20038;-75
2023/07/14 09:32:37;;;;;;;3.95;1.70;;;;;;;;;;4957037;28;20489;-75
2023/07/14 09:35:04;;;;;;;5.70;2.10;;;;;;;;;;4941399;28;20022;-77
2023/07/14 09:37:38;;;;;;;5.93;1.90;;;;;;;;;;4925653;28;20115;-76
2023/07/14 09:40:15;;;;;;;4.30;1.70;;;;;;;;;;4957082;28;20070;-76
2023/07/14 09:42:40;;;;;;;4.50;1.75;;;;;;;;;;4956921;28;20035;-75
2023/07/14 09:45:13;;;;;;;8.07;1.67;;;;;;;;;;4941892;28;20394;-76
2023/07/14 09:47:40;;;;;;;11.77;2.35;;;;;;;;;;4975326;28;20035;-75
2023/07/14 09:50:14;;;;;;;3.40;1.42;;;;;;;;;;4976041;28;20130;-75
2023/07/14 09:53:01;;;;;;;8.50;1.70;;;;;;;;;;4945722;28;20050;-75
2023/07/14 09:55:27;;;;;;;4.20;1.60;;;;;;;;;;4991632;28;20039;-76
2023/07/14 09:57:54;;;;;;;6.68;1.83;;;;;;;;;;4996700;28;20065;-76
2023/07/14 10:00:19;;;;;;;5.25;1.80;;;;;;;;;;4975444;28;20026;-76
2023/07/14 10:02:49;;;;;;;6.47;1.88;;;;;;;;;;4977782;28;20035;-76
2023/07/14 10:05:17;;;;;;;5.65;1.70;;;;;;;;;;4996478;28;20085;-76
2023/07/14 10:07:43;;;;;;;;;;;;;;;;;;4991713;28;20054;-75
2023/07/14 10:10:12;;;;;;;4.95;1.63;;;;;;;;;;4974484;28;20369;-76
2023/07/14 10:12:42;;;;;;;8.23;1.85;;;;;;;;;;4957372;28;20031;-74
2023/07/14 10:15:38;;;;;;;3.42;1.40;;;;;;;;;;4975569;28;20026;-76
2023/07/14 10:18:06;;;;;;;5.72;1.40;;;;;;;;;;4958127;28;20047;-77
2023/07/14 10:20:32;;;;;;;5.15;1.63;;;;;;;;;;4974125;28;20514;-76
2023/07/14 10:22:58;;;;;;;5.40;1.63;;;;;;;;;;4957065;28;20034;-77
2023/07/14 10:25:24;;;;;;;5.00;1.98;;;;;;;;;;4957135;28;20034;-76
2023/07/14 10:28:03;;;;;;;3.20;1.50;;;;;;;;;;4956810;28;20030;-76
2023/07/14 10:30:37;;;;;;;7.47;1.90;;;;;;;;;;4956465;28;20049;-76
2023/07/14 10:33:05;;;;;;;5.32;2.20;;;;;;;;;;4973685;28;20039;-76
2023/07/14 10:35:31;;;;;;;4.07;1.63;;;;;;;;;;4973823;28;20035;-75
2023/07/14 10:38:09;;;;;;;5.22;1.77;;;;;;;;;;4940469;28;20081;-77
2023/07/14 10:40:46;;;;;;;5.88;2.08;;;;;;;;;;4956151;28;20031;-74
2023/07/14 10:43:18;;;;;;;6.10;1.75;;;;;;;;;;4940184;28;20106;-76
2023/07/14 10:45:45;;;;;;;4.65;1.70;;;;;;;;;;4956110;28;20447;-75
2023/07/14 10:48:16;;;;;;;4.10;1.60;;;;;;;;;;4956365;28;20062;-77
2023/07/14 10:50:49;;;;;;;6.13;1.83;;;;;;;;;;4939743;28;20070;-76
2023/07/14 10:53:17;;;;;;;5.25;1.55;;;;;;;;;;4956112;28;20034;-76
2023/07/14 10:55:43;;;;;;;7.13;1.80;;;;;;;;;;4956186;28;20062;-76
2023/07/14 10:58:09;;;;;;;10.40;3.03;;;;;;;;;;4955908;28;20133;-75
2023/07/14 11:00:46;;;;;;;3.33;1.80;;;;;;;;;;4972957;28;20439;-76
2023/07/14 11:03:17;;;;;;;5.85;1.85;;;;;;;;;;4956036;28;20499;-76
2023/07/14 11:06:03;;;;;;;5.20;2.00;;;;;;;;;;4973104;28;20049;-76
2023/07/14 11:08:30;;;;;;;4.25;1.60;;;;;;;;;;4955687;28;20127;-76
2023/07/14 11:10:59;;;;;;;3.97;1.83;;;;;;;;;;4972696;28;20030;-76
2023/07/14 11:13:33;;;;;;;4.13;1.90;;;;;;;;;;4972724;28;20023;-75
2023/07/14 11:16:06;;;;;;;4.70;1.70;;;;;;;;;;4955755;28;20158;-76
2023/07/14 11:18:50;;;;;;;3.65;1.70;;;;;;;;;;4973328;28;20105;-77
2023/07/14 11:21:15;;;;;;;4.65;1.67;;;;;;;;;;4972577;28;20038;-76
2023/07/14 11:23:44;;;;;;;4.50;1.73;;;;;;;;;;4973344;28;20030;-76
2023/07/14 11:26:16;;;;;;;4.72;1.88;;;;;;;;;;4973087;28;20077;-74
2023/07/14 11:28:51;;;;;;;4.13;1.90;;;;;;;;;;4940120;28;20031;-75
2023/07/14 11:31:30;;;;;;;4.25;1.80;;;;;;;;;;4939512;28;20039;-76
2023/07/14 11:33:56;;;;;;;3.50;1.60;;;;;;;;;;4972543;28;20101;-76
2023/07/14 11:36:28;;;;;;;3.00;1.60;;;;;;;;;;4972657;28;20073;-77
2023/07/14 11:39:01;;;;;;;4.50;1.83;;;;;;;;;;4972805;28;20538;-76
2023/07/14 11:41:27;;;;;;;5.50;1.95;;;;;;;;;;4955016;28;20035;-73
2023/07/14 11:43:53;;;;;;;4.70;1.90;;;;;;;;;;4955742;28;20642;-75
2023/07/14 11:46:19;;;;;;;4.57;2.00;;;;;;;;;;4955712;28;20128;-74
2023/07/14 11:48:54;;;;;;;4.35;1.50;;;;;;;;;;4955617;28;20042;-74
2023/07/14 11:51:22;;;;;;;5.15;2.15;;;;;;;;;;4939320;28;20535;-76
2023/07/14 11:54:15;;;;;;;3.33;1.88;;;;;;;;;;4941203;28;20478;-74
2023/07/14 11:56:44;;;;;;;13.18;2.20;;;;;;;;;;4958835;28;20561;-76
2023/07/14 11:59:19;;;;;;;5.60;1.85;;;;;;;;;;4939644;28;20093;-74
2023/07/14 12:01:46;;;;;;;5.07;1.85;;;;;;;;;;4955218;28;20483;-76
2023/07/14 12:04:31;;;;;;;5.10;2.13;;;;;;;;;;4956229;28;20439;-74
2023/07/14 12:07:11;;;;;;;12.48;3.20;;;;;;;;;;4973495;28;20033;-75
2023/07/14 12:10:08;;;;;;;6.03;1.70;;;;;;;;;;4940344;28;20597;-76
2023/07/14 12:12:34;;;;;;;4.35;2.08;;;;;;;;;;4957606;28;20375;-76
2023/07/14 12:14:59;;;;;;;3.50;1.60;;;;;;;;;;4956645;28;20039;-74
2023/07/14 12:17:37;;;;;;;10.32;2.53;;;;;;;;;;4973849;28;20022;-75
2023/07/14 12:20:15;;;;;;;6.63;2.03;;;;;;;;;;4973548;28;20069;-77
2023/07/14 12:22:41;;;;;;;;;;;;;;;;;;4959178;28;20034;-77
2023/07/14 12:25:12;;;;;;;4.68;1.70;;;;;;;;;;4962813;28;19917;-75
2023/07/14 12:27:41;;;;;;;5.82;2.03;;;;;;;;;;4985666;28;20027;-78
2023/07/14 12:30:21;;;;;;;6.22;1.95;;;;;;;;;;4966612;28;20023;-75
2023/07/14 12:32:47;;;;;;;10.10;2.50;;;;;;;;;;4984320;28;20042;-74
2023/07/14 12:35:14;;;;;;;3.80;1.75;;;;;;;;;;4977267;28;20027;-76
2023/07/14 12:37:39;;;;;;;8.35;1.83;;;;;;;;;;4994163;28;20039;-75
2023/07/14 12:40:07;;;;;;;5.70;1.92;;;;;;;;;;4960385;28;20079;-75
2023/07/14 12:42:33;;;;;;;5.95;2.33;;;;;;;;;;4972499;28;20063;-75
2023/07/14 12:44:59;;;;;;;6.22;1.90;;;;;;;;;;4987013;28;20038;-75
2023/07/14 12:47:25;;;;;;;5.05;2.08;;;;;;;;;;4960942;28;20062;-76
2023/07/14 12:49:52;;;;;;;5.93;2.15;;;;;;;;;;4976343;28;20026;-76
2023/07/14 12:52:28;;;;;;;5.35;2.10;;;;;;;;;;4975575;28;20478;-75
2023/07/14 12:54:57;;;;;;;4.63;2.10;;;;;;;;;;4975716;28;20067;-77
2023/07/14 12:57:22;;;;;;;3.65;2.42;;;;;;;;;;4975777;28;20054;-74
2023/07/14 12:59:52;;;;;;;8.05;2.17;;;;;;;;;;4975872;28;20081;-77
2023/07/14 13:02:18;;;;;;;6.35;1.92;;;;;;;;;;4976802;28;20416;-76
2023/07/14 13:04:44;;;;;;;6.38;1.98;;;;;;;;;;4976684;28;20078;-76
2023/07/14 13:07:20;;;;;;;5.68;2.17;;;;;;;;;;4977410;28;20402;-76
2023/07/14 13:09:57;;;;;;;7.90;2.30;;;;;;;;;;4960194;28;20109;-74
2023/07/14 13:12:22;;;;;;;4.95;1.90;;;;;;;;;;4977278;28;20086;-75
2023/07/14 13:14:51;;;;;;;4.32;2.30;;;;;;;;;;4978457;28;20027;-76
2023/07/14 13:17:25;;;;;;;3.33;1.90;;;;;;;;;;4961210;28;20038;-76
2023/07/14 13:19:51;;;;;;;5.53;2.13;;;;;;;;;;4958203;28;20113;-74
2023/07/14 13:22:22;;;;;;;7.30;2.03;;;;;;;;;;4974593;28;20113;-76
2023/07/14 13:25:07;;;;;;;5.45;1.73;;;;;;;;;;4974827;28;20034;-77
2023/07/14 13:27:37;;;;;;;6.53;2.55;;;;;;;;;;4957909;28;20055;-76
2023/07/14 13:30:32;;;;;;;8.77;2.25;;;;;;;;;;4974595;28;20034;-74
2023/07/14 13:32:58;;;;;;;8.18;2.40;;;;;;;;;;4961844;28;20047;-77
2023/07/14 13:35:25;;;;;;;7.80;2.42;;;;;;;;;;4974350;28;20027;-77
2023/07/14 13:37:56;;;;;;;5.97;2.35;;;;;;;;;;4974537;28;20114;-75
2023/07/14 13:40:23;;;;;;;5.55;2.13;;;;;;;;;;4957390;28;20027;-76
2023/07/14 13:42:50;;;;;;;3.85;1.90;;;;;;;;;;4974480;28;20121;-76
2023/07/14 13:45:21;;;;;;;6.60;2.35;;;;;;;;;;4974764;28;20038;-75
2023/07/14 13:47:50;;;;;;;5.03;2.05;;;;;;;;;;4957249;28;20041;-76
2023/07/14 13:50:16;;;;;;;4.30;1.70;;;;;;;;;;4957464;28;20023;-73
2023/07/14 13:52:41;;;;;;;5.43;2.13;;;;;;;;;;4974178;28;20165;-77
2023/07/14 13:55:12;;;;;;;4.28;1.92;;;;;;;;;;4956972;28;20082;-76
2023/07/14 13:57:38;;;;;;;4.32;1.90;;;;;;;;;;4974309;28;20087;-75
2023/07/14 14:00:05;;;;;;;6.07;2.00;;;;;;;;;;4957116;28;20026;-77
2023/07/14 14:02:37;;;;;;;3.83;2.03;;;;;;;;;;4973840;28;20035;-76
2023/07/14 14:05:06;;;;;;;4.78;2.08;;;;;;;;;;4974346;28;20031;-75
2023/07/14 14:07:31;;;;;;;4.25;2.10;;;;;;;;;;4974201;28;20030;-76
2023/07/14 14:09:57;;;;;;;4.07;2.20;;;;;;;;;;4973858;28;20027;-76
2023/07/14 14:12:22;;;;;;;9.95;2.00;;;;;;;;;;4973524;28;20114;-76
2023/07/14 14:14:48;;;;;;;7.35;2.25;;;;;;;;;;4974267;28;20487;-76
2023/07/14 14:17:21;;;;;;;7.22;2.50;;;;;;;;;;4974053;28;20031;-76
2023/07/14 14:19:46;;;;;;;5.93;1.90;;;;;;;;;;4956946;28;20062;-75
2023/07/14 14:22:12;;;;;;;7.47;2.20;;;;;;;;;;4973417;28;20490;-75
2023/07/14 14:24:37;;;;;;;3.88;2.00;;;;;;;;;;4973733;28;20093;-76
2023/07/14 14:27:03;;;;;;;7.50;2.10;;;;;;;;;;4974851;28;20047;-76
2023/07/14 14:29:29;;;;;;;5.05;1.90;;;;;;;;;;4957609;28;20023;-76
2023/07/14 14:31:54;;;;;;;5.05;2.05;;;;;;;;;;4974027;28;20031;-76
2023/07/14 14:34:19;;;;;;;5.28;1.90;;;;;;;;;;4956283;28;20082;-75
2023/07/14 14:36:45;;;;;;;4.10;2.00;;;;;;;;;;4956423;28;20038;-76
2023/07/14 14:39:13;;;;;;;6.95;2.33;;;;;;;;;;4973381;28;20031;-76
2023/07/14 14:41:39;;;;;;;7.63;2.60;;;;;;;;;;4955823;28;20034;-76
2023/07/14 14:44:20;;;;;;;8.13;2.00;;;;;;;;;;4973432;28;20403;-76
2023/07/14 14:46:46;;;;;;;4.90;2.08;;;;;;;;;;4973391;28;20030;-76
2023/07/14 14:49:12;;;;;;;5.88;2.28;;;;;;;;;;4973724;28;20038;-75
2023/07/14 14:51:38;;;;;;;7.72;2.50;;;;;;;;;;4940237;28;20039;-77